Time;durP1;ratioP1;P1;durP2;ratioP2;P2;SDS_P1;SDS_P2;PMS_P1;PMS_P2;Temp;Humidity;BMP_temperature;BMP_pressure;BME280_temperature;BME280_humidity;BME280_pressure;Samples;Min_cycle;Max_cycle;Signal;HPM_P1;HPM_P2
2024/04/22 00:00:46;;;;;;;4.38;2.35;;;;;;;2.63;92.18;101622.44;5354162;27;20081;-73
2024/04/22 00:03:16;;;;;;;6.05;2.67;;;;;;;2.71;92.37;101621.59;5353749;27;20022;-72
2024/04/22 00:05:53;;;;;;;7.35;2.80;;;;;;;2.72;91.53;101618.19;5375363;27;20014;-72
2024/04/22 00:08:24;;;;;;;5.05;2.42;;;;;;;2.77;91.63;101611.28;5353262;27;20780;-72
2024/04/22 00:11:01;;;;;;;4.68;2.80;;;;;;;2.81;92.22;101610.41;5354299;27;20010;-72
2024/04/22 00:13:32;;;;;;;4.43;2.65;;;;;;;2.20;94.92;101621.34;5376066;27;21074;-72
2024/04/22 00:16:02;;;;;;;4.20;2.75;;;;;;;2.27;96.13;101610.19;5374235;27;20459;-71
2024/04/22 00:18:33;;;;;;;5.10;2.60;;;;;;;2.17;94.02;101617.91;5354347;27;20373;-72
2024/04/22 00:21:04;;;;;;;4.13;2.90;;;;;;;1.89;96.39;101619.47;5353199;27;20048;-72
2024/04/22 00:23:34;;;;;;;5.00;2.95;;;;;;;2.19;95.50;101604.09;5353249;27;20910;-71
2024/04/22 00:26:04;;;;;;;4.57;2.65;;;;;;;2.32;94.53;101621.44;5353540;27;21503;-72
2024/04/22 00:28:35;;;;;;;7.35;2.67;;;;;;;2.27;93.29;101612.78;5355598;27;20510;-72
2024/04/22 00:31:05;;;;;;;3.95;2.70;;;;;;;2.36;92.67;101618.00;5351105;27;20683;-72
2024/04/22 00:33:35;;;;;;;6.47;2.88;;;;;;;2.27;92.77;101606.72;5353120;27;20280;-72
2024/04/22 00:36:06;;;;;;;4.18;2.70;;;;;;;2.24;91.29;101617.97;5348969;27;20018;-72
2024/04/22 00:38:36;;;;;;;4.30;2.33;;;;;;;2.07;90.95;101614.41;5339333;27;20014;-72
2024/04/22 00:41:06;;;;;;;5.38;2.67;;;;;;;2.06;91.45;101616.97;5349300;27;22057;-72
2024/04/22 00:43:37;;;;;;;6.05;2.67;;;;;;;1.87;91.20;101615.13;5351849;27;20010;-72
2024/04/22 00:46:08;;;;;;;4.80;2.40;;;;;;;1.99;90.44;101616.06;5351914;27;20669;-72
2024/04/22 00:48:38;;;;;;;5.25;2.33;;;;;;;2.06;90.31;101627.31;5355053;27;20027;-72
2024/04/22 00:51:11;;;;;;;4.05;2.28;;;;;;;1.98;89.50;101619.50;5353924;27;20050;-72
2024/04/22 00:53:42;;;;;;;5.28;2.35;;;;;;;1.99;89.65;101620.38;5354869;27;22293;-72
2024/04/22 00:56:13;;;;;;;7.32;2.22;;;;;;;1.86;89.00;101622.00;5350312;27;22339;-72
2024/04/22 00:58:44;;;;;;;5.32;2.70;;;;;;;1.65;90.74;101621.84;5351310;27;21937;-72
2024/04/22 01:01:17;;;;;;;6.22;2.47;;;;;;;1.38;91.73;101624.22;5351774;27;23310;-72
2024/04/22 01:03:47;;;;;;;6.07;2.35;;;;;;;1.29;91.33;101618.97;5353740;27;20006;-72
2024/04/22 01:06:18;;;;;;;5.97;2.45;;;;;;;1.30;90.73;101623.28;5351067;27;20016;-72
2024/04/22 01:08:49;;;;;;;4.68;2.20;;;;;;;1.30;88.92;101627.59;5354204;27;20648;-72
2024/04/22 01:11:19;;;;;;;7.32;2.75;;;;;;;1.40;87.77;101622.53;5352841;27;20058;-72
2024/04/22 01:13:50;;;;;;;8.18;2.40;;;;;;;1.30;87.92;101627.59;5351339;27;20018;-72
2024/04/22 01:16:20;;;;;;;3.45;1.98;;;;;;;1.24;87.60;101630.09;5304755;27;23361;-73
2024/04/22 01:18:50;;;;;;;7.13;2.40;;;;;;;1.37;87.70;101626.78;5272088;27;20010;-72
2024/04/22 01:21:28;;;;;;;5.72;2.50;;;;;;;1.27;86.97;101618.94;5304096;27;21491;-72
2024/04/22 01:23:59;;;;;;;4.60;2.20;;;;;;;1.46;86.89;101626.88;5297909;27;20009;-72
2024/04/22 01:26:29;;;;;;;3.70;2.10;;;;;;;1.28;87.03;101631.91;5301084;27;20067;-72
2024/04/22 01:29:00;;;;;;;7.45;2.40;;;;;;;1.20;86.03;101622.34;5268176;27;20726;-72
2024/04/22 01:31:32;;;;;;;5.97;2.05;;;;;;;1.06;85.74;101631.66;5282285;27;20022;-72
2024/04/22 01:34:02;;;;;;;5.13;2.10;;;;;;;1.25;85.99;101620.66;5271673;27;22549;-72
2024/04/22 01:36:32;;;;;;;5.13;2.20;;;;;;;1.09;85.92;101631.69;5272233;27;20021;-72
2024/04/22 01:39:03;;;;;;;4.00;1.92;;;;;;;1.12;85.76;101622.25;5264114;27;20017;-72
2024/04/22 01:41:33;;;;;;;4.82;2.10;;;;;;;1.23;84.68;101617.19;5270111;27;20115;-72
2024/04/22 01:44:03;;;;;;;5.15;2.08;;;;;;;1.04;85.25;101612.69;5270976;27;20010;-72
2024/04/22 01:46:34;;;;;;;6.25;2.10;;;;;;;1.05;85.50;101623.03;5262984;27;20006;-72
2024/04/22 01:49:04;;;;;;;7.47;2.40;;;;;;;0.94;85.95;101623.78;5271518;27;22313;-72
2024/04/22 01:51:34;;;;;;;6.70;2.17;;;;;;;0.84;85.97;101627.97;5263429;27;20017;-72
2024/04/22 01:54:05;;;;;;;4.70;2.30;;;;;;;0.64;86.36;101615.69;5268383;27;20006;-72
2024/04/22 01:56:35;;;;;;;5.80;2.38;;;;;;;0.66;87.46;101629.47;5267393;27;20957;-72
2024/04/22 01:59:05;;;;;;;3.83;2.10;;;;;;;0.61;86.97;101632.03;5285817;27;20006;-72
2024/04/22 02:01:36;;;;;;;5.90;2.47;;;;;;;0.47;87.92;101624.94;5283428;27;20691;-72
2024/04/22 02:04:06;;;;;;;5.00;2.10;;;;;;;0.50;87.43;101617.22;5271140;27;20010;-72
2024/04/22 02:06:36;;;;;;;5.88;2.40;;;;;;;0.46;87.04;101623.19;5274331;27;22339;-71
2024/04/22 02:09:08;;;;;;;6.82;2.22;;;;;;;0.62;85.93;101617.38;5265147;27;20120;-72
2024/04/22 02:11:38;;;;;;;4.72;2.17;;;;;;;0.56;86.78;101625.06;5262947;27;20022;-73
2024/04/22 02:14:08;;;;;;;6.22;2.20;;;;;;;0.31;86.92;101630.75;5260931;27;20141;-72
2024/04/22 02:16:39;;;;;;;4.07;2.00;;;;;;;0.23;87.12;101625.47;5267738;27;20116;-72
2024/04/22 02:19:09;;;;;;;4.65;2.15;;;;;;;0.26;87.49;101622.97;5263864;27;22284;-72
2024/04/22 02:21:39;;;;;;;6.10;2.15;;;;;;;0.31;87.83;101623.00;5265791;27;20003;-72
2024/04/22 02:24:10;;;;;;;5.10;1.98;;;;;;;0.07;87.09;101625.25;5267976;27;20772;-72
2024/04/22 02:26:40;;;;;;;4.10;2.00;;;;;;;0.15;87.98;101621.94;5260600;27;20089;-73
2024/04/22 02:29:10;;;;;;;4.00;2.03;;;;;;;0.17;86.99;101624.56;5285432;27;20105;-72
2024/04/22 02:31:42;;;;;;;5.63;2.10;;;;;;;0.06;86.12;101620.94;5265365;27;20002;-72
2024/04/22 02:34:12;;;;;;;6.70;2.38;;;;;;;-0.02;86.18;101631.16;5257706;27;20017;-72
2024/04/22 02:36:42;;;;;;;5.57;2.00;;;;;;;-0.05;86.31;101625.97;5262758;27;20002;-72
2024/04/22 02:39:12;;;;;;;7.57;1.90;;;;;;;0.03;86.53;101620.91;5292831;26;20017;-72
2024/04/22 02:41:43;;;;;;;4.82;1.90;;;;;;;-0.05;85.02;101623.38;5291579;27;20002;-72
2024/04/22 02:44:13;;;;;;;5.93;1.98;;;;;;;-0.16;85.48;101618.91;5293976;27;20103;-72
2024/04/22 02:46:43;;;;;;;4.72;1.77;;;;;;;-0.07;85.12;101619.03;5302396;27;20021;-72
2024/04/22 02:49:14;;;;;;;5.18;1.80;;;;;;;0.03;83.97;101624.34;5294898;27;22867;-72
2024/04/22 02:51:44;;;;;;;4.43;1.90;;;;;;;0.02;83.58;101619.19;5280310;27;20013;-72
2024/04/22 02:54:14;;;;;;;3.30;1.83;;;;;;;0.07;84.13;101612.38;5291201;27;22829;-72
2024/04/22 02:56:44;;;;;;;3.60;1.63;;;;;;;-0.02;84.11;101612.22;5291531;27;20046;-72
2024/04/22 02:59:15;;;;;;;5.30;1.70;;;;;;;-0.04;82.77;101619.97;5289152;27;20783;-72
2024/04/22 03:01:48;;;;;;;4.57;2.08;;;;;;;-0.08;83.38;101612.16;5290214;26;20096;-72
2024/04/22 03:04:18;;;;;;;4.53;2.00;;;;;;;0.21;83.64;101610.84;5289884;27;20013;-72
2024/04/22 03:06:49;;;;;;;3.97;1.90;;;;;;;0.34;82.93;101610.13;5297045;26;20116;-72
2024/04/22 03:09:19;;;;;;;4.50;1.90;;;;;;;0.46;82.42;101602.56;5291798;27;20002;-72
2024/04/22 03:11:49;;;;;;;5.82;1.63;;;;;;;0.29;81.40;101599.78;5296585;27;20095;-72
2024/04/22 03:14:20;;;;;;;5.03;1.90;;;;;;;0.44;81.09;101610.31;5289410;27;21427;-72
2024/04/22 03:16:50;;;;;;;4.10;1.90;;;;;;;0.03;81.11;101608.03;5298315;27;20023;-72
2024/04/22 03:19:20;;;;;;;4.90;1.77;;;;;;;0.17;81.48;101598.75;5291230;27;22617;-72
2024/04/22 03:21:50;;;;;;;5.45;1.92;;;;;;;0.12;81.68;101606.44;5291278;27;20016;-72
2024/04/22 03:24:21;;;;;;;3.33;1.85;;;;;;;0.24;81.27;101605.72;5346265;27;20414;-74
2024/04/22 03:26:51;;;;;;;3.63;1.73;;;;;;;-0.18;82.18;101599.94;5422193;27;20077;-74
2024/04/22 03:29:21;;;;;;;5.00;1.80;;;;;;;-0.14;81.31;101604.34;5424192;27;20018;-74
2024/04/22 03:31:52;;;;;;;4.70;2.00;;;;;;;-0.19;81.79;101598.22;5423822;27;20509;-75
2024/04/22 03:34:22;;;;;;;5.40;2.10;;;;;;;-0.13;82.72;101598.34;5422061;27;20003;-74
2024/04/22 03:36:52;;;;;;;3.92;1.70;;;;;;;-0.11;83.29;101596.63;5426324;27;20022;-75
2024/04/22 03:39:23;;;;;;;5.20;2.10;;;;;;;-0.10;83.63;101596.66;5438553;27;24436;-74
2024/04/22 03:41:53;;;;;;;3.38;1.67;;;;;;;0.05;84.46;101601.16;5429289;27;20003;-74
2024/04/22 03:44:23;;;;;;;3.88;1.73;;;;;;;0.06;84.35;101584.84;5427030;27;20500;-74
2024/04/22 03:49:54;;;;;;;3.15;1.73;;;;;;;0.37;82.62;101589.56;5421598;27;20002;-72
2024/04/22 03:52:24;;;;;;;3.50;1.90;;;;;;;0.41;82.45;101588.75;5423727;27;20007;-74
2024/04/22 03:54:54;;;;;;;5.35;1.85;;;;;;;0.43;82.38;101582.75;5421736;27;20081;-74
2024/04/22 03:57:25;;;;;;;3.63;1.88;;;;;;;0.46;81.76;101597.41;5426374;27;20010;-74
2024/04/22 03:59:55;;;;;;;3.47;1.70;;;;;;;0.41;82.88;101591.31;5426328;27;20017;-75
2024/04/22 04:02:26;;;;;;;3.53;1.60;;;;;;;0.24;84.22;101585.09;5422897;27;20342;-74
2024/04/22 04:04:57;;;;;;;4.93;2.00;;;;;;;-0.12;85.31;101594.91;5422624;27;20335;-75
2024/04/22 04:07:27;;;;;;;4.85;1.73;;;;;;;-0.04;86.65;101591.59;5422400;27;20462;-75
2024/04/22 04:09:57;;;;;;;5.63;2.08;;;;;;;0.03;86.05;101595.13;5424301;27;20041;-75
2024/04/22 04:12:28;;;;;;;3.67;1.80;;;;;;;-0.05;86.04;101596.72;5425437;27;20015;-75
2024/04/22 04:14:58;;;;;;;4.57;1.80;;;;;;;0.08;86.22;101602.09;5437787;27;20062;-72
2024/04/22 04:17:28;;;;;;;5.22;1.92;;;;;;;-0.01;85.86;101599.38;5443896;27;20080;-74
2024/04/22 04:19:58;;;;;;;3.30;2.00;;;;;;;-0.12;85.82;101602.66;5427655;27;20017;-73
2024/04/22 04:22:29;;;;;;;5.95;1.95;;;;;;;-0.02;85.48;101601.91;5422419;27;20490;-74
2024/04/22 04:24:59;;;;;;;4.57;2.00;;;;;;;0.13;84.77;101602.13;5439383;27;20372;-74
2024/04/22 04:27:29;;;;;;;4.57;1.88;;;;;;;0.26;84.94;101585.97;5422573;27;20037;-74
2024/04/22 04:29:59;;;;;;;4.50;2.22;;;;;;;0.34;85.08;101590.38;5420874;27;19998;-74
2024/04/22 04:32:31;;;;;;;3.47;1.90;;;;;;;0.21;84.43;101585.06;5422991;27;20003;-74
2024/04/22 04:35:01;;;;;;;6.38;1.85;;;;;;;0.22;84.07;101591.94;5424939;27;20013;-75
2024/04/22 04:37:31;;;;;;;3.53;1.90;;;;;;;0.21;84.53;101591.06;5421759;27;20003;-74
2024/04/22 04:40:02;;;;;;;4.10;1.80;;;;;;;0.33;84.23;101595.50;5429468;27;20010;-74
2024/04/22 04:42:32;;;;;;;5.85;1.70;;;;;;;0.75;83.35;101590.88;5427761;27;20007;-74
2024/04/22 04:45:03;;;;;;;3.42;1.58;;;;;;;0.87;83.06;101588.41;5427652;27;20066;-73
2024/04/22 04:47:33;;;;;;;3.95;1.50;;;;;;;0.84;82.19;101588.34;5420320;27;20042;-75
2024/04/22 04:50:04;;;;;;;5.85;1.92;;;;;;;0.61;82.73;101597.59;5420535;27;20002;-75
2024/04/22 04:52:34;;;;;;;4.80;2.17;;;;;;;0.69;84.05;101595.97;5420567;27;20458;-73
2024/04/22 04:55:05;;;;;;;5.38;2.10;;;;;;;1.16;82.76;101595.59;5420321;27;20451;-74
2024/04/22 04:57:35;;;;;;;3.67;1.90;;;;;;;1.12;82.84;101592.97;5424526;27;20060;-74
2024/04/22 05:00:06;;;;;;;4.05;2.00;;;;;;;1.21;82.18;101593.91;5427010;27;20374;-75
2024/04/22 05:02:36;;;;;;;8.05;2.08;;;;;;;1.22;80.94;101594.78;5422430;27;19998;-75
2024/04/22 05:05:07;;;;;;;7.55;2.28;;;;;;;1.58;80.52;101590.78;5420877;27;20020;-74
2024/04/22 05:07:37;;;;;;;4.25;1.98;;;;;;;2.34;78.47;101582.63;5421001;27;20008;-75
2024/04/22 05:10:07;;;;;;;7.40;2.10;;;;;;;3.23;74.79;101587.16;5425275;27;20430;-74
2024/04/22 05:12:38;;;;;;;3.28;1.67;;;;;;;4.12;72.77;101583.66;5418692;27;20255;-74
2024/04/22 05:15:09;;;;;;;3.53;1.70;;;;;;;5.27;70.31;101579.63;5423405;27;20035;-75
2024/04/22 05:17:39;;;;;;;4.45;1.55;;;;;;;5.24;67.01;101574.44;5417074;27;20428;-75
2024/04/22 05:20:10;;;;;;;2.05;1.20;;;;;;;5.66;66.15;101574.06;5419297;27;20078;-74
2024/04/22 05:22:40;;;;;;;2.92;1.42;;;;;;;5.10;65.20;101584.06;5417265;27;20017;-74
2024/04/22 05:25:10;;;;;;;2.83;1.35;;;;;;;5.14;63.78;101586.66;5417446;27;20477;-75
2024/04/22 05:27:41;;;;;;;3.25;1.50;;;;;;;5.35;63.71;101589.09;5415224;27;20006;-75
2024/04/22 05:30:11;;;;;;;2.63;1.30;;;;;;;5.71;63.04;101583.56;5424816;27;20046;-75
2024/04/22 05:32:42;;;;;;;3.08;1.35;;;;;;;5.55;62.31;101589.78;5424855;27;20466;-75
2024/04/22 05:38:01;;;;;;;2.47;1.27;;;;;;;5.59;62.98;101591.47;5453778;21;20012;-72
2024/04/22 05:40:31;;;;;;;2.58;1.30;;;;;;;6.97;59.51;101574.28;5487095;26;20005;-72
2024/04/22 05:43:02;;;;;;;3.35;1.20;;;;;;;7.63;59.32;101575.81;5485731;26;20069;-72
2024/04/22 05:45:32;;;;;;;2.47;1.10;;;;;;;8.39;56.87;101568.34;5492219;26;20045;-72
2024/04/22 05:48:03;;;;;;;3.45;1.45;;;;;;;9.13;54.60;101571.91;5489752;26;19997;-72
2024/04/22 05:50:33;;;;;;;2.53;1.20;;;;;;;8.68;56.33;101573.81;5492763;26;20482;-72
2024/04/22 05:53:03;;;;;;;3.03;1.27;;;;;;;7.55;58.00;101575.09;5457884;26;20005;-71
2024/04/22 05:55:34;;;;;;;2.58;1.20;;;;;;;5.78;60.54;101585.22;5493672;26;20341;-70
2024/04/22 05:58:04;;;;;;;4.13;1.35;;;;;;;4.80;63.99;101591.19;5493588;26;20016;-69
2024/04/22 06:00:34;;;;;;;3.03;1.35;;;;;;;4.98;64.87;101582.41;5492546;26;20012;-71
2024/04/22 06:03:05;;;;;;;2.95;1.33;;;;;;;4.53;64.54;101589.59;5491691;26;20319;-72
2024/04/22 06:05:35;;;;;;;3.92;1.30;;;;;;;4.25;65.47;101593.16;5490034;26;20386;-73
2024/04/22 06:08:06;;;;;;;2.80;1.50;;;;;;;3.77;66.23;101597.59;5493876;26;20051;-74
2024/04/22 06:10:36;;;;;;;3.65;1.60;;;;;;;3.90;67.26;101592.38;5494099;26;20445;-73
2024/04/22 06:13:07;;;;;;;3.22;1.40;;;;;;;4.05;66.24;101594.06;5494332;26;20749;-73
2024/04/22 06:15:37;;;;;;;4.38;1.50;;;;;;;4.10;66.56;101592.34;5495331;26;20001;-74
2024/04/22 06:18:07;;;;;;;4.03;1.33;;;;;;;3.93;66.98;101588.91;5493807;26;20029;-74
2024/04/22 06:20:38;;;;;;;3.22;1.38;;;;;;;3.94;67.93;101591.50;5495573;26;20104;-74
2024/04/22 06:23:08;;;;;;;3.60;1.50;;;;;;;3.71;68.43;101589.78;5492478;26;20074;-74
2024/04/22 06:25:38;;;;;;;2.95;1.40;;;;;;;3.87;67.59;101584.59;5492194;26;20392;-74
2024/04/22 06:28:09;;;;;;;3.22;1.50;;;;;;;5.95;64.37;101575.53;5495732;26;20389;-73
2024/04/22 06:30:39;;;;;;;3.63;1.10;;;;;;;8.16;58.95;101560.06;5493855;26;21269;-71
2024/04/22 06:33:09;;;;;;;4.50;1.30;;;;;;;9.40;55.45;101563.44;5495773;26;20005;-72
2024/04/22 06:35:39;;;;;;;4.03;1.40;;;;;;;10.50;52.28;101550.81;5494334;26;20096;-72
2024/04/22 06:38:10;;;;;;;2.80;1.10;;;;;;;11.40;51.38;101546.25;5495842;26;20002;-72
2024/04/22 06:40:43;;;;;;;3.08;1.20;;;;;;;12.15;48.93;101555.97;5502293;26;20080;-72
2024/04/22 06:43:13;;;;;;;2.65;1.10;;;;;;;12.53;48.27;101546.59;5498098;26;20021;-71
2024/04/22 06:45:44;;;;;;;2.28;1.08;;;;;;;13.24;46.99;101541.22;5495464;26;20601;-70
2024/04/22 06:48:14;;;;;;;3.15;0.98;;;;;;;13.60;45.95;101552.88;5499835;26;20013;-72
2024/04/22 06:50:46;;;;;;;2.10;1.20;;;;;;;14.02;45.01;101549.28;5501119;26;20037;-71
2024/04/22 06:53:21;;;;;;;3.47;1.00;;;;;;;13.83;45.33;101540.44;5498114;26;20012;-73
2024/04/22 06:55:52;;;;;;;2.88;1.20;;;;;;;13.85;46.08;101543.00;5497741;26;19997;-72
2024/04/22 06:58:22;;;;;;;3.42;1.08;;;;;;;13.79;45.04;101544.13;5498692;26;20005;-72
2024/04/22 07:00:52;;;;;;;2.85;0.95;;;;;;;13.44;46.39;101547.38;5491437;26;20349;-72
2024/04/22 07:03:22;;;;;;;2.50;1.20;;;;;;;12.89;46.21;101549.63;5493521;26;20045;-72
2024/04/22 07:05:53;;;;;;;2.28;1.15;;;;;;;12.50;48.13;101552.91;5462006;26;20038;-72
2024/04/22 07:08:23;;;;;;;3.25;1.27;;;;;;;12.94;47.00;101555.56;5504632;26;20028;-71
2024/04/22 07:10:54;;;;;;;2.92;1.20;;;;;;;12.41;48.88;101555.84;5495513;26;20013;-72
2024/04/22 07:13:24;;;;;;;2.42;1.20;;;;;;;12.61;48.28;101551.56;5502821;26;20316;-71
2024/04/22 07:15:54;;;;;;;2.78;1.27;;;;;;;13.77;46.67;101538.03;5476939;26;20080;-72
2024/04/22 07:18:24;;;;;;;2.10;1.05;;;;;;;13.47;46.78;101544.63;5470364;26;20008;-71
2024/04/22 07:20:55;;;;;;;2.22;1.08;;;;;;;14.38;44.27;101549.44;5500914;26;20073;-72
2024/04/22 07:23:25;;;;;;;3.88;1.25;;;;;;;14.47;45.20;101547.28;5500127;26;20012;-70
2024/04/22 07:25:55;;;;;;;2.28;1.10;;;;;;;15.06;44.33;101548.00;5495904;26;20080;-73
2024/04/22 07:28:26;;;;;;;3.75;1.25;;;;;;;14.64;44.27;101542.91;5491354;26;20484;-70
2024/04/22 07:30:56;;;;;;;3.53;1.25;;;;;;;14.76;43.19;101552.94;5499409;26;20005;-71
2024/04/22 07:33:27;;;;;;;2.58;1.23;;;;;;;15.51;44.86;101543.13;5504962;26;20082;-71
2024/04/22 07:36:20;;;;;;;2.53;1.10;;;;;;;15.68;44.39;101537.84;5497187;26;20261;-72
2024/04/22 07:38:59;;;;;;;3.05;1.10;;;;;;;16.03;43.64;101545.72;5497421;26;20016;-73
2024/04/22 07:41:30;;;;;;;3.22;1.10;;;;;;;13.79;45.13;101548.53;5473185;26;20387;-72
2024/04/22 07:44:01;;;;;;;2.30;1.30;;;;;;;15.08;44.29;101541.72;5493639;26;20001;-71
2024/04/22 07:46:32;;;;;;;3.33;1.40;;;;;;;13.36;46.01;101560.00;5484091;26;20491;-72
2024/04/22 07:49:03;;;;;;;3.28;1.20;;;;;;;13.81;46.42;101557.25;5455935;26;20006;-73
2024/04/22 07:51:37;;;;;;;3.17;1.20;;;;;;;15.88;43.11;101532.41;5480363;26;20311;-73
2024/04/22 07:54:07;;;;;;;3.00;1.30;;;;;;;15.78;43.21;101533.78;5480850;26;20034;-71
2024/04/22 07:56:38;;;;;;;2.13;1.10;;;;;;;14.58;43.62;101542.34;5489927;26;20020;-73
2024/04/22 07:59:09;;;;;;;4.38;1.20;;;;;;;14.44;43.25;101550.03;5486254;26;20005;-72
2024/04/22 08:01:40;;;;;;;2.45;1.08;;;;;;;15.53;42.09;101546.56;5448955;26;19999;-74
2024/04/22 08:04:10;;;;;;;4.22;1.05;;;;;;;15.32;44.04;101547.63;5485515;26;20020;-71
2024/04/22 08:06:43;;;;;;;2.13;1.00;;;;;;;13.48;44.75;101548.97;5450766;26;20002;-70
2024/04/22 08:09:14;;;;;;;2.30;1.13;;;;;;;11.43;47.79;101559.28;5480740;26;20001;-72
2024/04/22 08:11:44;;;;;;;2.40;1.15;;;;;;;11.41;48.02;101565.53;5449331;26;20801;-72
2024/04/22 08:14:14;;;;;;;3.78;1.20;;;;;;;11.64;48.73;101568.25;5479165;26;20002;-72
2024/04/22 08:16:45;;;;;;;2.63;1.05;;;;;;;11.74;48.83;101561.75;5474549;26;20051;-73
2024/04/22 08:19:15;;;;;;;2.83;1.30;;;;;;;14.83;46.39;101542.94;5482485;26;20516;-72
2024/04/22 08:21:45;;;;;;;1.63;1.00;;;;;;;14.53;44.77;101547.81;5444046;26;20002;-72
2024/04/22 08:24:15;;;;;;;3.13;1.30;;;;;;;14.94;44.02;101537.97;5484284;26;19998;-72
2024/04/22 08:26:46;;;;;;;1.75;1.00;;;;;;;15.42;43.52;101544.44;5485089;26;20362;-73
2024/04/22 08:29:16;;;;;;;1.80;1.00;;;;;;;16.52;42.90;101536.91;5484848;26;20109;-73
2024/04/22 08:31:46;;;;;;;4.22;1.10;;;;;;;16.04;42.99;101538.66;5482537;26;20266;-73
2024/04/22 08:34:17;;;;;;;2.47;1.17;;;;;;;15.41;44.38;101547.16;5478884;26;20562;-73
2024/04/22 08:36:47;;;;;;;2.05;1.00;;;;;;;16.37;41.13;101543.00;5478294;26;19994;-72
2024/04/22 08:39:17;;;;;;;3.22;0.90;;;;;;;17.30;40.28;101537.81;5479896;26;20002;-72
2024/04/22 08:41:47;;;;;;;2.20;1.00;;;;;;;17.46;41.47;101538.63;5476754;26;20308;-72
2024/04/22 08:44:18;;;;;;;2.75;1.20;;;;;;;16.35;40.45;101542.25;5483570;26;20052;-72
2024/04/22 08:46:48;;;;;;;3.70;1.00;;;;;;;14.99;42.84;101539.47;5476957;26;20344;-71
2024/04/22 08:49:18;;;;;;;4.22;1.10;;;;;;;14.41;42.23;101550.16;5480270;26;20017;-73
2024/04/22 08:51:55;;;;;;;2.75;1.10;;;;;;;11.28;45.91;101564.19;5476581;26;20739;-73
2024/04/22 08:54:26;;;;;;;1.90;1.17;;;;;;;11.27;47.42;101563.31;5482654;26;20071;-71
2024/04/22 08:56:57;;;;;;;2.65;1.00;;;;;;;11.77;46.58;101559.03;5479437;26;20010;-71
2024/04/22 08:59:29;;;;;;;1.92;1.02;;;;;;;12.37;46.88;101547.25;5487373;26;20012;-72
2024/04/22 09:02:00;;;;;;;3.15;1.10;;;;;;;14.06;43.38;101542.97;5478839;26;20008;-72
2024/04/22 09:04:30;;;;;;;3.42;0.98;;;;;;;15.33;42.06;101536.94;5477944;26;20375;-69
2024/04/22 09:07:05;;;;;;;2.95;1.13;;;;;;;14.47;42.43;101537.56;5480917;26;19998;-72
2024/04/22 09:09:35;;;;;;;3.28;1.30;;;;;;;16.28;42.37;101532.06;5474089;26;20384;-70
2024/04/22 09:12:06;;;;;;;2.00;0.73;;;;;;;15.27;42.90;101533.75;5491327;26;20009;-73
2024/04/22 09:14:36;;;;;;;2.42;1.20;;;;;;;16.05;43.03;101529.78;5477522;26;20031;-72
2024/04/22 09:17:06;;;;;;;5.65;4.90;;;;;;;14.11;43.66;101533.06;5482288;26;20001;-72
2024/04/22 09:19:37;;;;;;;2.25;1.30;;;;;;;12.17;47.17;101546.25;5449824;26;19998;-70
2024/04/22 09:22:07;;;;;;;2.58;1.40;;;;;;;10.07;49.58;101552.06;5483657;26;20014;-73
2024/04/22 09:24:37;;;;;;;2.60;1.27;;;;;;;9.47;50.04;101551.91;5479913;26;20013;-70
2024/04/22 09:27:08;;;;;;;3.58;1.33;;;;;;;10.46;50.92;101535.22;5479456;26;20010;-70
2024/04/22 09:29:45;;;;;;;3.08;1.30;;;;;;;10.13;50.14;101537.03;5480990;26;20341;-70
2024/04/22 09:32:18;;;;;;;3.20;1.50;;;;;;;10.05;50.10;101532.91;5451193;26;19997;-72
2024/04/22 09:34:51;;;;;;;2.28;1.23;;;;;;;10.30;50.25;101524.31;5485462;26;20069;-69
2024/04/22 09:37:22;;;;;;;2.88;1.40;;;;;;;10.34;51.92;101525.94;5477976;26;20021;-72
2024/04/22 09:39:53;;;;;;;2.80;1.38;;;;;;;9.69;49.32;101529.50;5475641;26;19994;-71
2024/04/22 09:42:24;;;;;;;2.78;1.17;;;;;;;9.85;49.97;101532.59;5482387;26;19997;-72
2024/04/22 09:44:55;;;;;;;3.55;1.33;;;;;;;9.99;50.86;101522.59;5480181;26;20468;-71
2024/04/22 09:47:27;;;;;;;4.13;1.35;;;;;;;9.73;52.59;101522.44;5481570;26;20012;-71
2024/04/22 09:49:59;;;;;;;2.05;1.30;;;;;;;9.66;54.47;101519.09;5479085;26;19998;-71
2024/04/22 09:52:32;;;;;;;3.63;1.33;;;;;;;9.99;53.55;101526.06;5485180;26;20334;-71
2024/04/22 09:55:05;;;;;;;2.30;1.23;;;;;;;10.02;52.65;101519.91;5480898;26;20041;-71
2024/04/22 09:57:44;;;;;;;3.30;1.40;;;;;;;10.38;55.56;101524.09;5467657;26;19998;-72
2024/04/22 10:00:15;;;;;;;3.42;1.40;;;;;;;10.10;53.14;101526.66;5466857;26;20008;-72
2024/04/22 10:02:46;;;;;;;4.35;1.27;;;;;;;10.15;53.31;101524.75;5466239;26;20044;-72
2024/04/22 10:05:21;;;;;;;4.28;1.42;;;;;;;9.84;52.73;101523.00;5465808;26;20016;-72
2024/04/22 10:07:51;;;;;;;4.75;1.52;;;;;;;9.48;52.10;101530.06;5460322;26;20082;-72
2024/04/22 10:10:21;;;;;;;2.15;1.20;;;;;;;9.36;52.96;101524.28;5459189;26;20021;-71
2024/04/22 10:12:52;;;;;;;4.05;1.65;;;;;;;8.68;52.86;101518.88;5472934;26;20016;-72
2024/04/22 10:15:22;;;;;;;3.63;1.40;;;;;;;8.61;52.74;101523.41;5462989;26;20530;-72
2024/04/22 10:17:52;;;;;;;3.30;1.50;;;;;;;8.63;51.63;101520.75;5461933;26;20020;-71
2024/04/22 10:20:30;;;;;;;3.70;1.42;;;;;;;8.94;49.26;101518.28;5443115;26;20010;-72
2024/04/22 10:23:01;;;;;;;5.57;1.50;;;;;;;8.72;51.57;101518.78;5464595;26;20463;-72
2024/04/22 10:25:31;;;;;;;3.25;1.50;;;;;;;7.38;53.00;101519.72;5449397;26;20009;-71
2024/04/22 10:28:02;;;;;;;4.20;1.40;;;;;;;7.35;52.89;101522.38;5463606;26;20462;-70
2024/04/22 10:30:33;;;;;;;2.17;1.30;;;;;;;7.50;53.22;101514.28;5458789;26;19998;-70
2024/04/22 10:33:04;;;;;;;2.05;1.30;;;;;;;7.91;51.85;101504.84;5471402;26;20093;-69
2024/04/22 10:35:34;;;;;;;3.50;1.73;;;;;;;7.93;51.64;101504.81;5471452;26;20014;-68
2024/04/22 10:38:04;;;;;;;2.70;1.20;;;;;;;8.16;51.04;101495.63;5480878;26;20002;-71
2024/04/22 10:40:35;;;;;;;3.40;1.30;;;;;;;8.04;51.89;101492.41;5487459;26;20016;-70
2024/04/22 10:43:05;;;;;;;3.42;1.65;;;;;;;8.46;51.84;101496.72;5486684;26;20083;-71
2024/04/22 10:45:36;;;;;;;4.90;1.33;;;;;;;8.87;50.58;101495.78;5494582;26;20001;-70
2024/04/22 10:48:07;;;;;;;4.57;1.60;;;;;;;8.67;51.01;101491.88;5457427;26;20005;-72
2024/04/22 10:50:42;;;;;;;3.60;1.30;;;;;;;8.16;51.73;101503.47;5485546;26;19998;-72
2024/04/22 10:53:12;;;;;;;3.72;1.50;;;;;;;8.46;52.91;101494.09;5482101;26;20001;-72
2024/04/22 10:55:43;;;;;;;3.70;1.45;;;;;;;8.78;52.62;101493.34;5492794;26;20058;-69
2024/04/22 10:58:13;;;;;;;4.70;1.60;;;;;;;7.71;51.80;101493.00;5486554;26;20002;-71
2024/04/22 11:00:46;;;;;;;3.17;1.40;;;;;;;8.05;52.49;101488.88;5460051;26;20076;-71
2024/04/22 11:03:16;;;;;;;4.78;1.60;;;;;;;8.56;50.41;101482.56;5468260;26;19998;-72
2024/04/22 11:05:47;;;;;;;2.90;1.50;;;;;;;8.73;52.56;101481.28;5493616;26;20015;-69
2024/04/22 11:08:19;;;;;;;3.55;1.48;;;;;;;9.19;52.05;101471.44;5487528;26;20017;-71
2024/04/22 11:10:49;;;;;;;3.60;1.52;;;;;;;8.08;51.04;101486.22;5489023;26;20047;-72
2024/04/22 11:13:20;;;;;;;3.15;1.48;;;;;;;7.66;51.58;101481.81;5454738;26;19998;-72
2024/04/22 11:15:50;;;;;;;3.05;1.30;;;;;;;7.92;53.20;101476.94;5491818;26;20645;-72
2024/04/22 11:18:21;;;;;;;3.58;1.50;;;;;;;7.98;51.69;101476.81;5486042;26;20009;-70
2024/04/22 11:20:51;;;;;;;3.55;1.40;;;;;;;8.15;51.40;101475.59;5486262;26;20513;-71
2024/04/22 11:23:21;;;;;;;4.18;1.38;;;;;;;7.92;51.71;101477.81;5488120;26;20316;-72
2024/04/22 11:25:52;;;;;;;3.13;1.30;;;;;;;8.26;51.03;101472.75;5481440;26;20108;-72
2024/04/22 11:28:24;;;;;;;4.03;1.35;;;;;;;8.03;49.75;101464.56;5490620;26;21148;-72
2024/04/22 11:30:54;;;;;;;4.13;1.50;;;;;;;8.22;49.29;101460.66;5475899;26;19996;-71
2024/04/22 11:33:27;;;;;;;2.53;1.30;;;;;;;8.53;48.07;101454.72;5482930;26;20408;-72
2024/04/22 11:35:58;;;;;;;3.50;1.80;;;;;;;9.56;50.75;101441.69;5479941;26;20360;-71
2024/04/22 11:38:28;;;;;;;2.58;1.13;;;;;;;9.86;48.28;101446.06;5509114;21;20009;-87
2024/04/22 11:40:59;;;;;;;3.15;1.52;;;;;;;9.81;47.48;101444.50;5501526;26;20332;-89
2024/04/22 11:43:29;;;;;;;3.28;1.50;;;;;;;9.21;47.50;101433.84;5496361;26;20468;-87
2024/04/22 11:46:01;;;;;;;2.80;1.30;;;;;;;9.19;48.47;101440.91;5516034;26;20043;-88
2024/04/22 11:48:31;;;;;;;3.38;1.40;;;;;;;8.58;49.63;101446.78;5489054;26;20470;-88
2024/04/22 11:51:02;;;;;;;2.33;1.20;;;;;;;8.34;49.29;101449.91;5501676;26;20009;-88
2024/04/22 11:53:32;;;;;;;3.22;1.40;;;;;;;8.40;49.64;101447.19;5506008;26;20020;-88